出雲空港の過去48時間の天気

出雲空港 (Izumo)

現在時刻: 7/23 03:28 JST (7/22 18:28 UTC) 以下の時間は現地時間です。

過去48時間のMETAR気象情報
時間 風向 風速(m/s) 視程 気温(℃) 湿度(%) 気圧(hPa) 天気現象
22 20:00 北西 2 10km以上 31 66 1009
22 19:00 西北西 3 10km以上 31 66 1009
22 18:00 西 4 10km以上 33 56 1009
22 17:00 不定 2 10km以上 34 53 1008
22 16:00 3 10km以上 34 53 1008
22 15:30 北北東 3 10km以上 35 50 1008
22 15:00 北北東 4 10km以上 33 56 1008
22 14:00 5 10km以上 33 56 1009
22 13:00 5 10km以上 35 50 1008
22 12:19 北北東 4 10km以上 36 50 1009
22 12:00 東北東 3 10km以上 34 53 1009
22 11:24 北北東 3 10km以上 36 47 1009
22 11:00 2 10km以上 34 53 1009
22 10:00 北北西 2 10km以上 34 53 1009
22 09:00 不定 2 10km以上 32 59 1009
22 08:35 南東 2 10km以上 32 59 1010
22 08:00 不定 2 10km以上 30 66 1010
22 07:00 3 10km以上 28 74 1010
22 06:30 2 10km以上 27 79 1010
22 06:10 南南東 3 10km以上 26 84 1010
21 20:00 5 10km以上 31 62 1009
21 19:00 6 10km以上 31 62 1009
21 18:00 東北東 5 10km以上 33 59 1009
21 17:00 北東 2 10km以上 34 47 1008
21 16:00 4 10km以上 34 53 1008
21 15:00 5 10km以上 34 53 1008
21 14:00 6 10km以上 34 56 1009
21 13:00 北東 3 10km以上 35 50 1009
21 12:00 北北東 3 10km以上 34 53 1010
21 11:04 北北東 4 10km以上 35 53 1010
21 11:00 北北東 4 10km以上 33 56 1010
21 10:35 北北東 4 10km以上 34 56 1010
21 10:00 北東 3 10km以上 32 59 1010
21 09:36 北東 3 10km以上 34 53 1010
21 09:00 南東 2 10km以上 32 59 1010
21 08:30 南南東 2 10km以上 32 63 1010
21 08:00 南南東 2 10km以上 30 66 1010
21 07:00 不定 1 10km以上 28 79 1010
21 06:30 不定 1 10km以上 27 84 1010
21 06:10 南南東 2 10km以上 27 84 1010
RJOC 221100Z 31003KT 260V330 9999 FEW035 SCT045 31/24 Q1009
RJOC 221000Z 29005KT 9999 FEW035 SCT045 31/24 Q1009
RJOC 220900Z 27007KT 9999 FEW030 FEW035CB SCT040 BKN/// 33/23 Q1009
RJOC 220800Z VRB04KT 9999 FEW030 SCT/// 34/23 Q1008
RJOC 220700Z 35006KT 320V040 9999 FEW030 FEW035TCU SCT/// 34/23 Q1008
RJOC 220630Z 02005KT 9999 FEW030 SCT/// 35/23 Q1008 RMK 1CU030 A2979
RJOC 220600Z 02008KT 9999 FEW030 SCT/// 33/23 Q1008
RJOC 220500Z 36009KT 9999 FEW030 SCT040 BKN/// 33/23 Q1009
RJOC 220400Z 01010KT 9999 FEW030 SCT035 35/23 Q1008
RJOC 220319Z 03007KT 010V070 9999 FEW030 36/24 Q1009 RMK 2CU030 A2980
RJOC 220300Z 06005KT 9999 FEW025 34/23 Q1009
RJOC 220224Z 02006KT 9999 FEW025 36/23 Q1009 RMK 1CU025 A2981
RJOC 220200Z 01004KT 9999 FEW030 34/23 Q1009
RJOC 220100Z 33004KT 9999 FEW035 34/23 Q1009
RJOC 220000Z VRB03KT CAVOK 32/23 Q1009
RJOC 212335Z 14003KT 100V190 9999 FEW035 32/23 Q1010 RMK 1CU035 A2982
RJOC 212300Z VRB04KT 9999 FEW050 30/23 Q1010
RJOC 212200Z 17006KT 9999 FEW050 28/23 Q1010
RJOC 212130Z 17004KT 9999 FEW050 27/23 Q1010
RJOC 212110Z 16005KT 9999 FEW050 26/23 Q1010 RMK 1SC050 A2984
RJOC 211100Z 08010KT 9999 FEW030 31/23 Q1009
RJOC 211000Z 08011KT 9999 FEW030 31/23 Q1009
RJOC 210900Z 07009KT 9999 FEW035 SCT045 33/24 Q1009
RJOC 210800Z 04004KT 9999 FEW035TCU 34/21 Q1008
RJOC 210700Z 36008KT 9999 FEW035TCU 34/23 Q1008
RJOC 210600Z 01009KT 9999 FEW035 34/23 Q1008
RJOC 210500Z 35011KT 9999 SCT035 34/24 Q1009
RJOC 210400Z 04006KT 9999 SCT035 35/23 Q1009
RJOC 210300Z 02005KT 9999 FEW035 34/23 Q1010
RJOC 210204Z 02007KT 9999 FEW035 35/24 Q1010 RMK 2CU035 A2984
RJOC 210200Z 02007KT 9999 FEW035 33/23 Q1010
RJOC 210135Z 03007KT 9999 FEW035 SCT/// 34/24 Q1010 RMK 1CU035 A2984
RJOC 210100Z 04006KT 9999 FEW035 32/23 Q1010
RJOC 210036Z 05006KT 9999 FEW035 34/23 Q1010 RMK 1CU035 A2984
RJOC 210000Z 14004KT 070V220 9999 FEW035 32/23 Q1010
RJOC 202330Z 16003KT 120V200 9999 FEW035 32/24 Q1010 RMK 1CU035 A2985
RJOC 202300Z 16003KT 110V240 9999 FEW035 30/23 Q1010
RJOC 202200Z VRB02KT 9999 FEW035 28/24 Q1010
RJOC 202130Z VRB02KT 9999 FEW035 27/24 Q1010
RJOC 202110Z 15004KT 9999 FEW035 27/24 Q1010 RMK 1CU035 A2984